createdAt,value
2023-09-03T00:00:43.385Z,81.49
2023-09-03T00:02:06.602Z,81.73
2023-09-03T00:03:10.175Z,81.80
2023-09-03T00:04:13.547Z,81.74
2023-09-03T00:05:16.521Z,81.81
2023-09-03T00:06:19.652Z,82.08
2023-09-03T00:07:22.660Z,81.80
2023-09-03T00:08:26.045Z,81.87
2023-09-03T00:09:29.050Z,81.88
2023-09-03T00:10:36.673Z,82.07
2023-09-03T00:11:40.104Z,82.13
2023-09-03T00:12:43.142Z,82.13
2023-09-03T00:13:46.148Z,82.20
2023-09-03T00:14:49.130Z,82.26
2023-09-03T00:15:52.122Z,82.50
2023-09-03T00:16:55.219Z,82.52
2023-09-03T00:17:58.919Z,82.42
2023-09-03T00:19:02.000Z,82.65
2023-09-03T00:20:05.910Z,82.60
2023-09-03T00:21:09.016Z,82.74
2023-09-03T00:22:12.142Z,83.08
2023-09-03T00:23:15.273Z,82.74
2023-09-03T00:24:18.776Z,83.37
2023-09-03T00:25:22.528Z,83.17
2023-09-03T00:26:27.779Z,83.24
2023-09-03T00:27:33.651Z,83.15
2023-09-03T00:28:36.664Z,83.15
2023-09-03T00:29:41.870Z,83.09
2023-09-03T00:30:45.081Z,83.15
2023-09-03T00:31:48.016Z,83.42
2023-09-03T00:32:51.306Z,83.24
2023-09-03T00:33:54.864Z,83.73
2023-09-03T00:34:57.802Z,83.65
2023-09-03T00:36:02.655Z,83.72
2023-09-03T00:37:06.336Z,83.69
2023-09-03T00:38:09.764Z,83.54
2023-09-03T00:39:13.429Z,83.70
2023-09-03T00:40:16.567Z,83.84
2023-09-03T00:41:19.740Z,83.89
2023-09-03T00:42:22.938Z,83.81
2023-09-03T00:43:26.009Z,84.00
2023-09-03T00:44:29.015Z,84.00
2023-09-03T00:45:32.564Z,84.38
2023-09-03T00:46:35.788Z,84.19
2023-09-03T00:47:39.572Z,84.84
2023-09-03T00:48:43.821Z,84.51
2023-09-03T00:49:47.028Z,84.44
2023-09-03T00:50:52.664Z,84.46
2023-09-03T00:51:57.214Z,84.78
2023-09-03T00:53:00.305Z,84.93
2023-09-03T00:54:04.836Z,84.54
2023-09-03T00:55:08.158Z,84.68
2023-09-03T00:56:12.000Z,84.87
2023-09-03T00:57:15.176Z,84.85
2023-09-03T00:58:20.027Z,84.96
2023-09-03T00:59:25.185Z,84.89
2023-09-03T01:00:29.167Z,84.79
2023-09-03T01:01:32.299Z,84.88
2023-09-03T01:02:36.340Z,85.07
2023-09-03T01:03:40.275Z,85.08
2023-09-03T01:04:43.321Z,84.93
2023-09-03T01:05:46.281Z,85.15
2023-09-03T01:06:51.163Z,85.13
2023-09-03T01:07:55.122Z,85.34
2023-09-03T01:08:57.997Z,85.22
2023-09-03T01:10:02.390Z,85.27
2023-09-03T01:11:11.313Z,85.67
2023-09-03T01:12:26.182Z,85.58
2023-09-03T01:13:40.188Z,85.52
2023-09-03T01:15:14.418Z,85.74
2023-09-03T01:16:29.235Z,85.69
2023-09-03T01:17:47.662Z,85.78
2023-09-03T01:18:52.520Z,86.20
2023-09-03T01:19:58.430Z,86.18
2023-09-03T01:21:35.677Z,86.48
2023-09-03T01:23:00.824Z,86.25
2023-09-03T01:24:41.781Z,86.18
2023-09-03T01:25:50.888Z,86.55
2023-09-03T01:26:57.237Z,86.35
2023-09-03T01:28:24.178Z,86.21
2023-09-03T01:29:28.384Z,86.40
2023-09-03T01:30:32.120Z,86.81
2023-09-03T01:33:02.477Z,87.04
2023-09-03T01:34:06.377Z,86.85
2023-09-03T01:35:10.214Z,86.75
2023-09-03T01:36:15.256Z,86.90
2023-09-03T01:37:18.614Z,86.73
2023-09-03T01:38:22.481Z,86.88
2023-09-03T01:39:26.531Z,86.74
2023-09-03T01:40:29.519Z,86.99
2023-09-03T01:41:38.811Z,87.07
2023-09-03T01:42:43.466Z,87.03
2023-09-03T01:43:46.635Z,87.37
2023-09-03T01:44:49.769Z,87.12
2023-09-03T01:46:02.154Z,87.18
2023-09-03T01:47:16.276Z,87.52
2023-09-03T01:48:44.905Z,87.40
2023-09-03T01:50:02.425Z,87.43
2023-09-03T01:51:35.090Z,87.59
2023-09-03T01:53:06.078Z,87.41
2023-09-03T01:54:20.417Z,87.73
2023-09-03T01:55:26.641Z,88.00
2023-09-03T01:56:33.845Z,87.78
2023-09-03T01:58:00.857Z,87.99
2023-09-03T01:59:10.678Z,88.11
2023-09-03T02:00:17.092Z,88.04
2023-09-03T02:01:24.798Z,88.35
2023-09-03T02:02:29.820Z,88.32
2023-09-03T02:03:34.139Z,88.03
2023-09-03T02:04:37.304Z,88.38
2023-09-03T02:05:40.341Z,88.35
2023-09-03T02:06:47.915Z,88.53
2023-09-03T02:07:50.880Z,88.57
2023-09-03T02:08:54.025Z,88.54
2023-09-03T02:09:57.499Z,88.89
2023-09-03T02:11:00.638Z,88.53
2023-09-03T02:12:06.675Z,88.47
2023-09-03T02:13:09.663Z,88.74
2023-09-03T02:14:12.663Z,88.64
2023-09-03T02:15:16.215Z,89.13
2023-09-03T02:16:19.254Z,89.10
2023-09-03T02:17:22.453Z,88.99
2023-09-03T02:18:25.407Z,88.86
2023-09-03T02:19:28.568Z,88.94
2023-09-03T02:20:31.564Z,88.78
2023-09-03T02:21:34.659Z,88.78
2023-09-03T02:22:37.888Z,88.79
2023-09-03T02:23:40.834Z,88.76
2023-09-03T02:24:44.123Z,88.82
2023-09-03T02:25:47.273Z,88.86
2023-09-03T02:26:50.302Z,88.85
2023-09-03T02:27:53.414Z,88.63
2023-09-03T02:28:56.918Z,88.78
2023-09-03T02:29:59.910Z,88.71
2023-09-03T02:31:04.050Z,88.69
2023-09-03T02:32:07.546Z,88.56
2023-09-03T02:33:10.985Z,88.56
2023-09-03T02:34:15.013Z,88.65
2023-09-03T02:35:18.438Z,88.54
2023-09-03T02:36:21.369Z,88.55
2023-09-03T02:37:24.401Z,88.62
2023-09-03T02:38:27.873Z,88.58
2023-09-03T02:39:30.934Z,88.84
2023-09-03T02:40:33.910Z,88.73
2023-09-03T02:41:36.907Z,88.79
2023-09-03T02:42:39.875Z,88.71
2023-09-03T02:43:42.910Z,88.70
2023-09-03T02:44:45.890Z,88.89
2023-09-03T02:45:49.195Z,88.60
2023-09-03T02:46:53.527Z,88.87
2023-09-03T02:47:56.529Z,88.88
2023-09-03T02:48:59.840Z,88.85
2023-09-03T02:50:03.150Z,88.86
2023-09-03T02:51:06.155Z,89.11
2023-09-03T02:52:09.100Z,89.04
2023-09-03T02:53:12.058Z,88.87
2023-09-03T02:54:15.135Z,88.77
2023-09-03T02:55:17.940Z,88.93
2023-09-03T02:56:20.963Z,88.99
2023-09-03T02:57:23.915Z,88.97
2023-09-03T02:58:26.817Z,89.19
2023-09-03T02:59:30.285Z,89.20
2023-09-03T03:00:34.861Z,89.25
2023-09-03T03:01:37.938Z,89.22
2023-09-03T03:02:42.669Z,89.22
2023-09-03T03:03:46.152Z,89.35
2023-09-03T03:04:49.198Z,89.68
2023-09-03T03:05:54.909Z,89.75
2023-09-03T03:06:57.850Z,89.81
2023-09-03T03:08:04.050Z,89.83
2023-09-03T03:09:07.856Z,89.97
2023-09-03T03:10:11.662Z,90.21
2023-09-03T03:11:16.936Z,89.96
2023-09-03T03:12:25.521Z,90.89
2023-09-03T03:13:28.407Z,90.39
2023-09-03T03:14:31.413Z,90.61
2023-09-03T03:15:36.592Z,90.49
2023-09-03T03:16:39.675Z,90.76
2023-09-03T03:17:47.131Z,90.82
2023-09-03T03:18:51.779Z,90.68
2023-09-03T03:19:55.829Z,90.77
2023-09-03T03:21:06.654Z,90.85
2023-09-03T03:22:09.616Z,91.15
2023-09-03T03:23:12.566Z,91.03
2023-09-03T03:24:15.505Z,91.33
2023-09-03T03:25:19.427Z,91.06
2023-09-03T03:26:22.391Z,90.99
2023-09-03T03:27:25.546Z,91.06
2023-09-03T03:28:30.753Z,91.05
2023-09-03T03:29:33.755Z,90.87
2023-09-03T03:30:36.714Z,91.06
2023-09-03T03:31:39.758Z,90.86
2023-09-03T03:32:42.773Z,90.91
2023-09-03T03:33:47.651Z,91.00
2023-09-03T03:34:51.599Z,90.73
2023-09-03T03:35:54.871Z,91.05
2023-09-03T03:36:58.096Z,90.90
2023-09-03T03:38:01.015Z,90.86
2023-09-03T03:39:04.042Z,90.90
2023-09-03T03:40:07.735Z,91.04
2023-09-03T03:41:16.501Z,90.90
2023-09-03T03:42:19.944Z,91.26
2023-09-03T03:43:23.208Z,91.00
2023-09-03T03:44:26.195Z,90.87
2023-09-03T03:45:29.270Z,91.10
2023-09-03T03:46:32.228Z,90.85
2023-09-03T03:47:35.279Z,91.01
2023-09-03T03:48:38.206Z,91.06
2023-09-03T03:49:41.174Z,91.08
2023-09-03T03:50:44.052Z,91.30
2023-09-03T03:51:46.916Z,90.98
2023-09-03T03:52:49.948Z,90.95
2023-09-03T03:53:52.895Z,91.28
2023-09-03T03:54:56.166Z,91.25
2023-09-03T03:56:10.779Z,91.41
2023-09-03T03:57:13.910Z,91.22
2023-09-03T03:58:16.973Z,91.10
2023-09-03T03:59:19.877Z,91.11
2023-09-03T04:00:22.868Z,91.34
2023-09-03T04:01:25.931Z,91.21
2023-09-03T04:02:30.181Z,91.26
2023-09-03T04:03:33.178Z,91.52
2023-09-03T04:04:36.172Z,91.45
2023-09-03T04:05:39.061Z,91.37
2023-09-03T04:06:41.898Z,91.52
2023-09-03T04:07:44.927Z,91.35
2023-09-03T04:08:48.395Z,91.39
2023-09-03T04:09:51.372Z,91.26
2023-09-03T04:11:21.701Z,91.29
2023-09-03T04:12:24.625Z,91.38
2023-09-03T04:13:28.647Z,91.64
2023-09-03T04:14:31.598Z,91.72
2023-09-03T04:15:38.512Z,91.49
2023-09-03T04:16:41.556Z,91.60
2023-09-03T04:17:44.511Z,91.75
2023-09-03T04:18:47.991Z,91.88
2023-09-03T04:19:51.603Z,91.83
2023-09-03T04:20:57.004Z,91.84
2023-09-03T04:22:01.163Z,91.70
2023-09-03T04:23:04.975Z,91.93
2023-09-03T04:24:09.513Z,91.65
2023-09-03T04:25:13.095Z,91.83
2023-09-03T04:26:16.260Z,91.89
2023-09-03T04:27:23.810Z,91.78
2023-09-03T04:28:27.545Z,91.82
2023-09-03T04:29:30.348Z,91.93
2023-09-03T04:30:36.271Z,92.04
2023-09-03T04:31:41.558Z,91.89
2023-09-03T04:32:44.539Z,91.73
2023-09-03T04:33:47.679Z,91.98
2023-09-03T04:34:52.913Z,91.94
2023-09-03T04:36:02.243Z,91.91
2023-09-03T04:37:07.554Z,91.98
2023-09-03T04:38:11.024Z,92.10
2023-09-03T04:39:13.926Z,92.02
2023-09-03T04:40:18.245Z,91.92
2023-09-03T04:41:22.200Z,91.96
2023-09-03T04:42:28.224Z,92.01
2023-09-03T04:43:31.227Z,92.03
2023-09-03T04:44:34.638Z,91.87
2023-09-03T04:45:38.405Z,91.89
2023-09-03T04:46:42.044Z,92.16
2023-09-03T04:47:45.349Z,92.03
2023-09-03T04:48:49.189Z,92.03
2023-09-03T04:49:52.214Z,91.98
2023-09-03T04:50:55.217Z,91.90
2023-09-03T04:51:58.494Z,91.93
2023-09-03T04:53:01.334Z,92.00
2023-09-03T04:54:04.343Z,91.91
2023-09-03T04:55:07.618Z,92.03
2023-09-03T04:56:13.966Z,92.06
2023-09-03T04:57:19.280Z,91.94
2023-09-03T04:58:22.291Z,91.80
2023-09-03T04:59:25.590Z,91.95
2023-09-03T05:00:29.425Z,91.85
2023-09-03T05:01:35.168Z,91.84
2023-09-03T05:02:38.961Z,91.83
2023-09-03T05:03:42.090Z,91.69
2023-09-03T05:04:45.705Z,91.71
2023-09-03T05:05:48.642Z,91.56
2023-09-03T05:06:51.557Z,91.49
2023-09-03T05:07:57.408Z,91.44
2023-09-03T05:09:00.689Z,91.42
2023-09-03T05:10:14.844Z,91.28
2023-09-03T05:11:18.507Z,91.30
2023-09-03T05:12:23.497Z,91.31
2023-09-03T05:13:26.567Z,91.23
2023-09-03T05:14:29.459Z,91.06
2023-09-03T05:15:34.326Z,90.85
2023-09-03T05:16:38.397Z,90.61
2023-09-03T05:17:41.908Z,90.67
2023-09-03T05:18:45.261Z,90.60
2023-09-03T05:19:49.566Z,90.34
2023-09-03T05:20:52.525Z,90.30
2023-09-03T05:21:56.790Z,90.25
2023-09-03T05:22:59.783Z,90.08
2023-09-03T05:24:04.126Z,90.06
2023-09-03T05:25:08.275Z,90.01
2023-09-03T05:26:11.463Z,89.89
2023-09-03T05:27:16.664Z,89.88
2023-09-03T05:28:19.841Z,89.76
2023-09-03T05:29:22.957Z,89.61
2023-09-03T05:30:27.157Z,89.73
2023-09-03T05:31:31.902Z,89.32
2023-09-03T05:32:35.389Z,88.97
2023-09-03T05:33:39.145Z,88.84
2023-09-03T05:34:42.093Z,88.84
2023-09-03T05:35:45.131Z,88.77
2023-09-03T05:36:48.684Z,88.58
2023-09-03T05:37:52.848Z,88.48
2023-09-03T05:38:55.892Z,88.20
2023-09-03T05:39:59.286Z,88.21
2023-09-03T05:41:03.665Z,87.94
2023-09-03T05:42:06.637Z,87.61
2023-09-03T05:43:09.542Z,87.56
2023-09-03T05:44:13.522Z,87.41
2023-09-03T05:45:17.013Z,87.21
2023-09-03T05:46:20.412Z,87.19
2023-09-03T05:47:23.901Z,87.30
2023-09-03T05:48:26.842Z,87.19
2023-09-03T05:49:32.302Z,87.14
2023-09-03T05:50:35.242Z,87.12
2023-09-03T05:51:38.910Z,87.00
2023-09-03T05:52:43.834Z,86.97
2023-09-03T05:53:46.916Z,86.83
2023-09-03T05:54:49.867Z,86.77
2023-09-03T05:55:52.842Z,86.84
2023-09-03T05:56:55.855Z,86.68
2023-09-03T05:57:59.481Z,86.49
2023-09-03T05:59:06.954Z,86.42
2023-09-03T06:00:11.156Z,86.16
2023-09-03T06:01:25.210Z,86.01
2023-09-03T06:02:28.135Z,85.93
2023-09-03T06:03:31.237Z,85.61
2023-09-03T06:04:34.648Z,85.57
2023-09-03T06:05:37.574Z,85.60
2023-09-03T06:06:41.047Z,85.51
2023-09-03T06:07:44.085Z,85.34
2023-09-03T06:08:47.160Z,85.24
2023-09-03T06:09:50.043Z,84.94
2023-09-03T06:10:57.364Z,84.75
2023-09-03T06:12:00.452Z,84.63
2023-09-03T06:13:03.604Z,84.81
2023-09-03T06:14:06.638Z,84.59
2023-09-03T06:15:09.710Z,84.33
2023-09-03T06:16:12.622Z,84.13
2023-09-03T06:17:16.220Z,84.31
2023-09-03T06:18:19.655Z,84.26
2023-09-03T06:19:23.680Z,84.24
2023-09-03T06:20:26.695Z,84.10
2023-09-03T06:21:30.472Z,83.84
2023-09-03T06:22:33.482Z,83.84
2023-09-03T06:23:36.320Z,83.69
2023-09-03T06:24:39.372Z,83.42
2023-09-03T06:25:43.260Z,83.21
2023-09-03T06:26:46.458Z,83.19
2023-09-03T06:27:49.484Z,83.02
2023-09-03T06:28:52.380Z,82.75
2023-09-03T06:29:55.277Z,82.77
2023-09-03T06:31:00.216Z,82.71
2023-09-03T06:32:03.432Z,82.48
2023-09-03T06:33:06.719Z,82.49
2023-09-03T06:34:09.713Z,82.46
2023-09-03T06:35:12.603Z,82.18
2023-09-03T06:36:16.413Z,82.24
2023-09-03T06:37:19.544Z,82.30
2023-09-03T06:38:22.702Z,82.38
2023-09-03T06:39:27.580Z,82.42
2023-09-03T06:40:30.539Z,82.41
2023-09-03T06:41:33.428Z,82.04
2023-09-03T06:42:37.096Z,82.06
2023-09-03T06:43:40.104Z,81.77
2023-09-03T06:44:42.980Z,81.74
2023-09-03T06:45:45.966Z,81.89
2023-09-03T06:46:48.866Z,81.99
2023-09-03T06:47:51.880Z,81.83
2023-09-03T06:48:55.534Z,81.56
2023-09-03T06:49:58.536Z,81.32
2023-09-03T06:51:01.450Z,81.24
2023-09-03T06:52:04.697Z,81.24
2023-09-03T06:53:07.585Z,81.26
2023-09-03T06:54:14.612Z,80.94
2023-09-03T06:55:19.279Z,81.05
2023-09-03T06:56:22.656Z,80.47
2023-09-03T06:57:29.521Z,80.51
2023-09-03T06:58:32.765Z,80.41
2023-09-03T06:59:35.885Z,80.33
2023-09-03T07:00:38.894Z,80.22
2023-09-03T07:01:41.931Z,80.24
2023-09-03T07:02:44.974Z,80.40
2023-09-03T07:03:47.957Z,80.48
2023-09-03T07:04:51.247Z,80.60
2023-09-03T07:05:54.675Z,80.25
2023-09-03T07:07:00.276Z,80.31
2023-09-03T07:08:06.313Z,80.49
2023-09-03T07:09:11.982Z,80.52
2023-09-03T07:10:14.963Z,80.14
2023-09-03T07:11:17.838Z,80.28
2023-09-03T07:12:20.870Z,80.58
2023-09-03T07:13:23.739Z,80.55
2023-09-03T07:14:26.658Z,80.65
2023-09-03T07:15:29.636Z,80.82
2023-09-03T07:16:33.915Z,81.13
2023-09-03T07:17:36.813Z,81.08
2023-09-03T07:18:39.819Z,80.95
2023-09-03T07:19:43.026Z,80.82
2023-09-03T07:20:45.950Z,80.77
2023-09-03T07:21:48.999Z,80.70
2023-09-03T07:22:52.153Z,80.96
2023-09-03T07:23:55.232Z,81.00
2023-09-03T07:24:58.305Z,81.02
2023-09-03T07:26:12.243Z,81.11
2023-09-03T07:27:15.239Z,81.01
2023-09-03T07:28:18.160Z,80.98
2023-09-03T07:29:21.356Z,80.95
2023-09-03T07:30:24.396Z,80.96
2023-09-03T07:31:27.243Z,80.99
2023-09-03T07:32:30.250Z,80.95
2023-09-03T07:33:33.727Z,80.74
2023-09-03T07:34:36.696Z,80.96
2023-09-03T07:35:39.602Z,80.72
2023-09-03T07:36:43.391Z,80.11
2023-09-03T07:37:46.499Z,79.88
2023-09-03T07:38:49.380Z,80.11
2023-09-03T07:39:52.328Z,79.97
2023-09-03T07:40:55.237Z,79.88
2023-09-03T07:41:58.282Z,79.90
2023-09-03T07:43:01.131Z,79.81
2023-09-03T07:44:04.777Z,79.56
2023-09-03T07:45:08.453Z,79.28
2023-09-03T07:46:11.442Z,78.73
2023-09-03T07:47:14.516Z,78.90
2023-09-03T07:48:18.401Z,78.76
2023-09-03T07:49:21.935Z,78.97
2023-09-03T07:50:25.562Z,78.87
2023-09-03T07:51:29.135Z,79.06
2023-09-03T07:52:33.633Z,78.88
2023-09-03T07:53:37.913Z,78.84
2023-09-03T07:54:41.928Z,78.78
2023-09-03T07:55:46.232Z,78.84
2023-09-03T07:56:51.141Z,78.84
2023-09-03T07:58:00.255Z,78.94
2023-09-03T07:59:04.233Z,78.93
2023-09-03T08:00:09.888Z,79.11
2023-09-03T08:01:20.711Z,78.84
2023-09-03T08:02:24.469Z,78.89
2023-09-03T08:03:33.714Z,78.76
2023-09-03T08:04:36.681Z,78.84
2023-09-03T08:05:39.644Z,78.73
2023-09-03T08:06:42.810Z,78.23
2023-09-03T08:07:46.902Z,78.16
2023-09-03T08:08:54.735Z,77.64
2023-09-03T08:09:57.866Z,77.97
2023-09-03T08:11:01.093Z,77.64
2023-09-03T08:12:04.239Z,77.17
2023-09-03T08:13:07.257Z,76.90
2023-09-03T08:14:10.204Z,77.23
2023-09-03T08:15:14.555Z,76.58
2023-09-03T08:16:17.450Z,76.04
2023-09-03T08:17:21.810Z,75.84
2023-09-03T08:18:24.685Z,75.52
2023-09-03T08:19:27.770Z,75.69
2023-09-03T08:20:30.808Z,75.63
2023-09-03T08:21:33.641Z,75.82
2023-09-03T08:22:36.735Z,75.37
2023-09-03T08:23:41.772Z,75.42
2023-09-03T08:24:44.603Z,75.06
2023-09-03T08:25:47.740Z,74.87
2023-09-03T08:26:50.573Z,74.40
2023-09-03T08:27:53.532Z,74.19
2023-09-03T08:28:56.444Z,74.03
2023-09-03T08:30:00.269Z,74.33
2023-09-03T08:31:04.069Z,74.24
2023-09-03T08:32:07.533Z,73.85
2023-09-03T08:33:11.652Z,72.51
2023-09-03T08:34:15.281Z,71.38
2023-09-03T08:35:18.298Z,70.40
2023-09-03T08:36:23.010Z,71.22
2023-09-03T08:37:27.945Z,70.65
2023-09-03T08:38:31.028Z,71.03
2023-09-03T08:39:33.905Z,70.57
2023-09-03T08:40:37.812Z,71.00
2023-09-03T08:41:41.522Z,71.09
2023-09-03T08:42:47.919Z,70.94
2023-09-03T08:43:56.173Z,70.62
2023-09-03T08:45:05.846Z,70.49
2023-09-03T08:46:11.689Z,70.70
2023-09-03T08:47:18.126Z,70.89
2023-09-03T08:48:21.076Z,71.28
2023-09-03T08:49:24.216Z,70.10
2023-09-03T08:50:27.811Z,70.46
2023-09-03T08:51:32.931Z,70.38
2023-09-03T08:52:38.359Z,70.05
2023-09-03T08:53:41.944Z,70.07
2023-09-03T08:54:44.992Z,69.87
2023-09-03T08:55:47.919Z,69.36
2023-09-03T08:56:50.846Z,70.03
2023-09-03T08:57:55.456Z,69.52
2023-09-03T08:58:58.602Z,69.59
2023-09-03T09:00:08.873Z,69.77
2023-09-03T09:01:14.577Z,69.60
2023-09-03T09:02:18.540Z,68.92
2023-09-03T09:03:26.684Z,68.78
2023-09-03T09:04:31.499Z,67.17
2023-09-03T09:05:37.062Z,67.36
2023-09-03T09:06:44.925Z,67.83
2023-09-03T09:07:49.460Z,67.48
2023-09-03T09:08:53.308Z,67.65
2023-09-03T09:10:00.031Z,68.03
2023-09-03T09:11:11.467Z,68.11
2023-09-03T09:12:23.490Z,68.05
2023-09-03T09:13:28.078Z,68.09
2023-09-03T09:15:01.203Z,67.88
2023-09-03T09:16:04.419Z,67.58
2023-09-03T09:17:14.274Z,67.36
2023-09-03T09:18:17.351Z,66.78
2023-09-03T09:19:20.708Z,67.40
2023-09-03T09:20:23.955Z,66.67
2023-09-03T09:21:26.990Z,66.83
2023-09-03T09:22:29.931Z,66.90
2023-09-03T09:23:32.995Z,66.55
2023-09-03T09:24:45.581Z,66.07
2023-09-03T09:25:48.588Z,65.93
2023-09-03T09:26:51.492Z,66.27
2023-09-03T09:27:55.821Z,65.66
2023-09-03T09:29:00.551Z,65.94
2023-09-03T09:30:11.988Z,65.35
2023-09-03T09:31:17.005Z,65.37
2023-09-03T09:32:22.895Z,65.34
2023-09-03T09:33:27.477Z,65.00
2023-09-03T09:34:42.961Z,63.85
2023-09-03T09:35:45.798Z,63.86
2023-09-03T09:36:57.704Z,63.88
2023-09-03T09:38:08.109Z,62.13
2023-09-03T09:39:11.031Z,61.63
2023-09-03T09:40:15.292Z,61.89
2023-09-03T09:41:28.446Z,61.90
2023-09-03T09:42:31.503Z,61.31
2023-09-03T09:43:47.701Z,61.17
2023-09-03T09:44:53.546Z,60.16
2023-09-03T09:45:56.895Z,60.82
2023-09-03T09:47:23.157Z,61.53
2023-09-03T09:48:29.926Z,60.35
2023-09-03T09:49:56.724Z,60.11
2023-09-03T09:51:01.682Z,58.87
2023-09-03T09:52:06.981Z,59.54
2023-09-03T09:53:25.694Z,59.18
2023-09-03T09:54:42.704Z,58.47
2023-09-03T09:55:46.343Z,58.67
2023-09-03T09:56:51.782Z,58.17
2023-09-03T09:57:57.257Z,58.33
2023-09-03T10:00:45.145Z,58.19
2023-09-03T10:01:53.535Z,57.87
2023-09-03T10:02:59.685Z,57.78
2023-09-03T10:04:05.226Z,57.67
2023-09-03T10:05:11.484Z,57.80
2023-09-03T10:06:22.898Z,57.80
2023-09-03T10:07:27.022Z,57.97
2023-09-03T10:08:32.468Z,57.22
2023-09-03T10:09:42.135Z,57.59
2023-09-03T10:10:46.764Z,56.63
2023-09-03T10:11:51.505Z,56.48
2023-09-03T10:12:54.926Z,56.86
2023-09-03T10:13:57.840Z,56.53
2023-09-03T10:15:02.095Z,56.93
2023-09-03T10:16:09.646Z,57.39
2023-09-03T10:17:16.957Z,57.43
2023-09-03T10:18:21.853Z,57.77
2023-09-03T10:19:30.396Z,57.59
2023-09-03T10:20:35.049Z,57.17
2023-09-03T10:21:52.602Z,56.07
2023-09-03T10:22:59.275Z,54.39
2023-09-03T10:24:07.003Z,54.68
2023-09-03T10:25:15.565Z,55.00
2023-09-03T10:26:27.544Z,55.40
2023-09-03T10:27:36.507Z,55.11
2023-09-03T10:28:43.235Z,55.11
2023-09-03T10:29:48.588Z,55.51
2023-09-03T10:30:55.394Z,55.37
2023-09-03T10:32:04.106Z,56.05
2023-09-03T10:33:10.257Z,55.98
2023-09-03T10:34:16.130Z,54.20
2023-09-03T10:35:19.356Z,55.15
2023-09-03T10:36:23.413Z,54.86
2023-09-03T10:37:40.573Z,55.51
2023-09-03T10:38:45.968Z,55.10
2023-09-03T10:39:49.151Z,53.83
2023-09-03T10:41:18.204Z,54.35
2023-09-03T10:42:25.157Z,54.08
2023-09-03T10:43:28.221Z,54.09
2023-09-03T10:44:34.421Z,54.54
2023-09-03T10:45:37.401Z,54.09
2023-09-03T10:47:00.078Z,53.74
2023-09-03T10:48:05.801Z,54.19
2023-09-03T10:49:08.808Z,53.51
2023-09-03T10:50:12.260Z,53.13
2023-09-03T10:51:36.612Z,52.35
2023-09-03T10:52:41.243Z,52.59
2023-09-03T10:53:44.351Z,52.49
2023-09-03T10:55:07.267Z,52.77
2023-09-03T10:56:18.572Z,52.71
2023-09-03T10:57:21.795Z,52.92
2023-09-03T10:58:31.782Z,52.71
2023-09-03T10:59:54.423Z,52.20
2023-09-03T11:01:27.905Z,51.95
2023-09-03T11:02:31.017Z,52.03
2023-09-03T11:03:47.697Z,52.16
2023-09-03T11:05:20.783Z,52.15
2023-09-03T11:06:26.000Z,52.37
2023-09-03T11:07:28.888Z,52.64
2023-09-03T11:08:32.777Z,52.40
2023-09-03T11:09:35.768Z,52.72
2023-09-03T11:10:39.931Z,51.80
2023-09-03T11:11:42.876Z,52.04
2023-09-03T11:12:47.344Z,51.13
2023-09-03T11:13:51.420Z,50.00
2023-09-03T11:14:56.000Z,49.03
2023-09-03T11:15:58.978Z,49.58
2023-09-03T11:17:09.457Z,49.93
2023-09-03T11:18:12.408Z,49.85
2023-09-03T11:19:15.284Z,48.92
2023-09-03T11:20:49.321Z,49.07
2023-09-03T11:21:53.580Z,48.91
2023-09-03T11:22:56.672Z,49.22
2023-09-03T11:24:06.696Z,49.50
2023-09-03T11:25:09.671Z,48.79
2023-09-03T11:26:15.625Z,48.65
2023-09-03T11:27:18.674Z,48.30
2023-09-03T11:28:21.530Z,47.92
2023-09-03T11:29:26.108Z,47.95
2023-09-03T11:30:30.406Z,48.36
2023-09-03T11:31:47.329Z,48.49
2023-09-03T11:32:50.241Z,48.96
2023-09-03T11:33:53.496Z,49.38
2023-09-03T11:35:00.904Z,49.68
2023-09-03T11:36:04.492Z,47.85
2023-09-03T11:37:07.684Z,48.89
2023-09-03T11:38:11.757Z,48.87
2023-09-03T11:39:18.369Z,49.29
2023-09-03T11:40:30.052Z,48.97
2023-09-03T11:41:33.108Z,49.05
2023-09-03T11:42:36.265Z,49.08
2023-09-03T11:43:40.179Z,49.70
2023-09-03T11:44:43.211Z,50.06
2023-09-03T11:45:47.030Z,49.66
2023-09-03T11:47:00.235Z,49.86
2023-09-03T11:48:07.457Z,50.39
2023-09-03T11:49:10.464Z,49.84
2023-09-03T11:50:15.104Z,50.08
2023-09-03T11:51:27.843Z,49.86
2023-09-03T11:52:31.938Z,50.41
2023-09-03T11:53:44.294Z,50.64
2023-09-03T11:54:47.260Z,50.42
2023-09-03T11:55:54.070Z,50.01
2023-09-03T11:57:00.698Z,50.19
2023-09-03T11:58:07.409Z,49.94
2023-09-03T11:59:11.193Z,49.67
2023-09-03T12:00:16.047Z,49.58
2023-09-03T12:01:19.429Z,49.73
2023-09-03T12:02:23.153Z,49.48
2023-09-03T12:03:26.550Z,49.00
2023-09-03T12:04:32.895Z,48.94
2023-09-03T12:05:36.933Z,49.13
2023-09-03T12:06:41.708Z,49.46
2023-09-03T12:07:44.825Z,49.65
2023-09-03T12:08:47.647Z,49.18
2023-09-03T12:09:53.481Z,49.09
2023-09-03T12:10:56.400Z,49.35
2023-09-03T12:11:59.292Z,49.46
2023-09-03T12:13:03.521Z,48.72
2023-09-03T12:14:12.703Z,49.15
2023-09-03T12:15:22.682Z,49.33
2023-09-03T12:16:26.347Z,49.15
2023-09-03T12:17:29.855Z,49.22
2023-09-03T12:18:33.414Z,49.18
2023-09-03T12:19:43.383Z,49.31
2023-09-03T12:20:46.985Z,49.14
2023-09-03T12:21:53.517Z,49.61
2023-09-03T12:22:56.481Z,49.62
2023-09-03T12:23:59.419Z,49.23
2023-09-03T12:25:06.523Z,49.11
2023-09-03T12:26:16.789Z,48.98
2023-09-03T12:27:19.761Z,49.01
2023-09-03T12:28:38.963Z,49.43
2023-09-03T12:29:52.285Z,49.30
2023-09-03T12:30:58.433Z,48.26
2023-09-03T12:32:01.454Z,47.91
2023-09-03T12:33:04.573Z,48.69
2023-09-03T12:34:07.623Z,48.77
2023-09-03T12:35:20.497Z,49.05
2023-09-03T12:36:23.577Z,48.22
2023-09-03T12:37:39.428Z,48.29
2023-09-03T12:38:55.726Z,48.00
2023-09-03T12:39:58.587Z,46.62
2023-09-03T12:41:01.513Z,47.33
2023-09-03T12:42:08.589Z,47.62
2023-09-03T12:43:11.510Z,45.91
2023-09-03T12:44:16.445Z,45.97
2023-09-03T12:45:19.418Z,46.52
2023-09-03T12:46:22.867Z,46.63
2023-09-03T12:47:25.777Z,46.67
2023-09-03T12:48:30.727Z,46.18
2023-09-03T12:49:33.703Z,46.35
2023-09-03T12:50:36.565Z,46.80
2023-09-03T12:51:40.822Z,47.02
2023-09-03T12:52:44.551Z,47.34
2023-09-03T12:53:48.682Z,47.32
2023-09-03T12:54:51.975Z,46.96
2023-09-03T12:55:56.817Z,47.23
2023-09-03T12:57:01.453Z,47.47
2023-09-03T12:58:04.697Z,46.88
2023-09-03T12:59:07.745Z,46.39
2023-09-03T13:00:11.599Z,46.39
2023-09-03T13:01:14.774Z,46.69
2023-09-03T13:02:19.211Z,46.94
2023-09-03T13:03:22.720Z,46.96
2023-09-03T13:04:26.145Z,47.05
2023-09-03T13:05:29.194Z,47.05
2023-09-03T13:06:32.294Z,47.02
2023-09-03T13:07:35.249Z,45.99
2023-09-03T13:08:39.408Z,43.74
2023-09-03T13:09:42.307Z,43.65
2023-09-03T13:10:45.186Z,44.41
2023-09-03T13:11:48.304Z,44.77
2023-09-03T13:12:51.162Z,44.63
2023-09-03T13:13:54.128Z,44.54
2023-09-03T13:14:57.134Z,44.12
2023-09-03T13:16:01.547Z,44.26
2023-09-03T13:17:04.613Z,44.28
2023-09-03T13:18:07.770Z,44.23
2023-09-03T13:19:10.759Z,43.70
2023-09-03T13:20:13.961Z,43.25
2023-09-03T13:21:17.537Z,43.92
2023-09-03T13:22:20.434Z,43.67
2023-09-03T13:23:23.728Z,42.25
2023-09-03T13:24:26.849Z,42.39
2023-09-03T13:25:35.171Z,42.69
2023-09-03T13:26:38.587Z,40.91
2023-09-03T13:27:41.391Z,41.48
2023-09-03T13:28:44.334Z,41.20
2023-09-03T13:29:47.282Z,40.45
2023-09-03T13:31:05.233Z,40.25
2023-09-03T13:32:10.480Z,40.83
2023-09-03T13:33:13.448Z,40.54
2023-09-03T13:34:16.495Z,40.18
2023-09-03T13:35:19.664Z,39.79
2023-09-03T13:36:23.161Z,40.28
2023-09-03T13:37:26.109Z,39.66
2023-09-03T13:38:29.030Z,39.38
2023-09-03T13:39:33.904Z,38.15
2023-09-03T13:40:39.856Z,38.76
2023-09-03T13:41:42.735Z,38.82
2023-09-03T13:42:45.554Z,38.86
2023-09-03T13:43:48.985Z,38.54
2023-09-03T13:44:54.784Z,38.48
2023-09-03T13:45:59.874Z,39.04
2023-09-03T13:47:03.081Z,38.52
2023-09-03T13:48:06.563Z,38.23
2023-09-03T13:49:11.031Z,38.75
2023-09-03T13:50:13.932Z,38.74
2023-09-03T13:51:16.873Z,38.84
2023-09-03T13:52:19.841Z,39.62
2023-09-03T13:53:23.117Z,39.44
2023-09-03T13:54:26.204Z,39.73
2023-09-03T13:55:29.470Z,39.84
2023-09-03T13:56:33.080Z,38.91
2023-09-03T13:57:36.192Z,38.81
2023-09-03T13:58:39.059Z,38.25
2023-09-03T13:59:43.022Z,38.08
2023-09-03T14:00:46.060Z,38.38
2023-09-03T14:01:49.182Z,38.25
2023-09-03T14:02:52.444Z,38.17
2023-09-03T14:03:56.326Z,38.12